Time;durP1;ratioP1;P1;durP2;ratioP2;P2;SDS_P1;SDS_P2;PMS_P1;PMS_P2;Temp;Humidity;BMP_temperature;BMP_pressure;BME280_temperature;BME280_humidity;BME280_pressure;Samples;Min_cycle;Max_cycle;Signal;HPM_P1;HPM_P2
2021/03/04 00:00:05;;;;;;;11.73;6.87;;;10.10;89.60;;;;;;5011654;28;20358;-68
2021/03/04 00:02:30;;;;;;;9.90;7.40;;;10.10;89.00;;;;;;5010326;28;20232;-68
2021/03/04 00:04:56;;;;;;;13.43;6.33;;;10.20;87.90;;;;;;5011007;28;20208;-68
2021/03/04 00:07:22;;;;;;;11.40;6.60;;;10.20;86.20;;;;;;5011129;28;20634;-69
2021/03/04 00:09:47;;;;;;;13.70;7.50;;;10.40;81.90;;;;;;5011166;28;20173;-68
2021/03/04 00:12:13;;;;;;;13.87;6.83;;;10.50;81.10;;;;;;5010992;28;20187;-68
2021/03/04 00:14:39;;;;;;;12.53;6.70;;;10.60;82.30;;;;;;5011041;28;20183;-68
2021/03/04 00:17:04;;;;;;;12.60;6.57;;;10.60;84.50;;;;;;5010787;28;20203;-67
2021/03/04 00:19:30;;;;;;;17.50;8.43;;;10.50;86.00;;;;;;5011316;28;20172;-68
2021/03/04 00:21:56;;;;;;;10.07;6.87;;;10.50;83.90;;;;;;5010832;28;20173;-69
2021/03/04 00:24:21;;;;;;;16.10;7.30;;;10.30;86.40;;;;;;5010857;28;20606;-68
2021/03/04 00:26:47;;;;;;;15.40;6.77;;;10.20;88.60;;;;;;5010940;28;20270;-67
2021/03/04 00:29:13;;;;;;;8.67;6.80;;;10.20;88.20;;;;;;5010722;28;20184;-69
2021/03/04 00:31:39;;;;;;;12.67;6.33;;;10.10;90.10;;;;;;5010865;28;20176;-69
2021/03/04 00:34:05;;;;;;;11.87;7.30;;;10.00;90.80;;;;;;5010615;28;20267;-70
2021/03/04 00:36:30;;;;;;;10.67;7.50;;;9.90;90.90;;;;;;5010694;28;20192;-68
2021/03/04 00:38:56;;;;;;;12.23;6.87;;;10.10;92.00;;;;;;4992805;28;20190;-69
2021/03/04 00:41:22;;;;;;;16.97;7.70;;;10.10;92.10;;;;;;5010650;28;20184;-67
2021/03/04 00:43:47;;;;;;;12.77;7.30;;;10.20;93.00;;;;;;5010830;28;21193;-69
2021/03/04 00:46:13;;;;;;;12.70;7.03;;;10.20;91.90;;;;;;5010949;28;20619;-68
2021/03/04 00:48:38;;;;;;;11.57;6.97;;;10.20;92.20;;;;;;5010549;28;20329;-69
2021/03/04 00:51:04;;;;;;;10.27;6.77;;;10.20;91.60;;;;;;5010462;28;20591;-68
2021/03/04 00:53:30;;;;;;;13.33;7.17;;;10.10;92.20;;;;;;5010491;28;20235;-69
2021/03/04 00:55:55;;;;;;;13.23;7.60;;;10.10;91.70;;;;;;5014096;28;20293;-67
2021/03/04 00:58:21;;;;;;;15.30;6.73;;;10.10;93.60;;;;;;5015529;28;20220;-69
2021/03/04 01:00:46;;;;;;;9.33;7.17;;;10.10;93.30;;;;;;5014667;28;20266;-69
2021/03/04 01:03:12;;;;;;;10.77;6.33;;;10.10;94.10;;;;;;5014408;28;20204;-69
2021/03/04 01:05:37;;;;;;;11.83;7.20;;;10.00;92.10;;;;;;5014002;28;20184;-69
2021/03/04 01:08:03;;;;;;;12.10;7.07;;;10.10;92.00;;;;;;5014387;28;20194;-68
2021/03/04 01:10:37;;;;;;;10.47;7.00;;;10.00;91.90;;;;;;5014346;28;20718;-68
2021/03/04 01:13:04;;;;;;;14.17;7.70;;;9.80;93.00;;;;;;5014507;28;20192;-69
2021/03/04 01:15:30;;;;;;;13.13;8.30;;;9.80;92.30;;;;;;5014181;28;20192;-67
2021/03/04 01:17:56;;;;;;;12.67;7.00;;;9.90;93.90;;;;;;5014056;28;20227;-69
2021/03/04 01:20:22;;;;;;;12.93;6.83;;;9.80;91.80;;;;;;5014137;28;20169;-68
2021/03/04 01:22:48;;;;;;;10.17;7.03;;;9.80;90.70;;;;;;5013904;28;20685;-68
2021/03/04 01:25:14;;;;;;;12.60;7.70;;;9.90;89.30;;;;;;5014169;28;20327;-68
2021/03/04 01:27:40;;;;;;;11.47;7.80;;;9.80;91.40;;;;;;5014098;28;20693;-68
2021/03/04 01:30:08;;;;;;;12.17;6.90;;;9.80;93.80;;;;;;5013963;28;20415;-68
2021/03/04 01:32:34;;;;;;;13.33;7.40;;;9.80;92.30;;;;;;5013918;28;20286;-67
2021/03/04 01:34:59;;;;;;;12.27;7.03;;;9.80;91.70;;;;;;5013729;28;20447;-68
2021/03/04 01:37:25;;;;;;;13.87;7.77;;;9.70;91.70;;;;;;5013994;28;20211;-68
2021/03/04 01:39:51;;;;;;;11.83;7.17;;;9.70;93.30;;;;;;5013988;28;20222;-69
2021/03/04 01:42:16;;;;;;;14.33;7.17;;;9.60;93.90;;;;;;5013302;28;20207;-68
2021/03/04 01:44:42;;;;;;;12.93;7.13;;;9.60;93.50;;;;;;5013864;28;20239;-69
2021/03/04 01:47:08;;;;;;;11.33;6.20;;;9.50;92.10;;;;;;5013766;28;20181;-67
2021/03/04 01:49:34;;;;;;;13.90;7.50;;;9.50;93.00;;;;;;5013573;28;20181;-68
2021/03/04 01:52:00;;;;;;;10.53;7.00;;;9.50;91.00;;;;;;5013736;28;20502;-69
2021/03/04 01:54:26;;;;;;;11.43;6.17;;;9.50;92.90;;;;;;5013795;28;20506;-69
2021/03/04 01:56:52;;;;;;;12.67;6.97;;;9.40;93.90;;;;;;5013456;28;20184;-67
2021/03/04 01:59:18;;;;;;;13.93;8.10;;;9.30;93.70;;;;;;5013917;28;20220;-68
2021/03/04 02:01:44;;;;;;;12.07;7.37;;;9.20;94.70;;;;;;5013656;28;20176;-68
2021/03/04 02:04:09;;;;;;;12.27;6.97;;;9.20;94.20;;;;;;5012991;28;20952;-69
2021/03/04 02:07:19;;;;;;;11.03;6.67;;;9.10;94.00;;;;;;5012679;28;20176;-68
2021/03/04 02:09:54;;;;;;;10.53;6.60;;;9.10;94.90;;;;;;4967285;28;20196;-70
2021/03/04 02:12:32;;;;;;;10.50;7.00;;;9.20;94.70;;;;;;5013006;28;20419;-68
2021/03/04 02:15:03;;;;;;;10.53;6.77;;;9.20;94.10;;;;;;5013572;28;20415;-68
2021/03/04 02:17:32;;;;;;;12.07;7.53;;;9.20;95.70;;;;;;5013022;28;20510;-70
2021/03/04 02:20:03;;;;;;;14.47;6.87;;;9.20;95.60;;;;;;5013346;28;20419;-69
2021/03/04 02:22:29;;;;;;;12.60;7.00;;;9.10;94.20;;;;;;5012689;28;20404;-68
2021/03/04 02:25:01;;;;;;;11.77;7.27;;;9.10;95.90;;;;;;5012836;28;20418;-68
2021/03/04 02:27:31;;;;;;;13.57;7.47;;;9.10;95.40;;;;;;5013242;28;20568;-69
2021/03/04 02:30:06;;;;;;;11.93;7.50;;;9.00;96.10;;;;;;5012820;28;20450;-68
2021/03/04 02:32:33;;;;;;;15.10;8.00;;;9.00;97.20;;;;;;5013017;28;20498;-69
2021/03/04 02:35:03;;;;;;;16.77;8.07;;;9.00;97.40;;;;;;5012786;28;20897;-69
2021/03/04 02:37:32;;;;;;;13.17;7.30;;;8.90;96.60;;;;;;5013186;28;21057;-66
2021/03/04 02:39:59;;;;;;;14.17;7.80;;;8.90;96.40;;;;;;5012886;28;20496;-68
2021/03/04 02:42:25;;;;;;;16.13;7.73;;;8.90;96.20;;;;;;5012456;28;20412;-68
2021/03/04 02:44:54;;;;;;;17.47;7.03;;;8.90;96.70;;;;;;5012796;28;20766;-68
2021/03/04 02:47:21;;;;;;;14.17;8.10;;;8.80;96.60;;;;;;5012645;28;20415;-69
2021/03/04 02:49:47;;;;;;;12.53;7.27;;;8.80;96.00;;;;;;5012574;28;20523;-67
2021/03/04 02:52:15;;;;;;;12.43;6.73;;;8.80;95.70;;;;;;5011224;28;20518;-68
2021/03/04 02:54:42;;;;;;;13.93;7.47;;;8.80;94.80;;;;;;5012367;28;20928;-69
2021/03/04 02:57:10;;;;;;;12.60;7.70;;;8.90;94.60;;;;;;5012311;28;20875;-68
2021/03/04 02:59:38;;;;;;;12.63;7.67;;;8.90;95.00;;;;;;5012944;28;20455;-69
2021/03/04 03:02:05;;;;;;;12.80;7.93;;;8.90;95.00;;;;;;5012252;28;20407;-69
2021/03/04 03:04:34;;;;;;;14.37;7.53;;;9.00;95.90;;;;;;5012401;28;20451;-68
2021/03/04 03:07:02;;;;;;;14.37;7.77;;;9.00;94.30;;;;;;5012260;28;20452;-69
2021/03/04 03:09:28;;;;;;;12.63;7.43;;;8.90;93.60;;;;;;5012607;28;20419;-68
2021/03/04 03:11:54;;;;;;;11.97;7.57;;;8.90;92.90;;;;;;5012258;28;20408;-69
2021/03/04 03:14:21;;;;;;;13.37;7.87;;;9.00;93.20;;;;;;5011880;28;20431;-69
2021/03/04 03:16:47;;;;;;;13.27;7.57;;;8.90;93.00;;;;;;4994395;28;20423;-69
2021/03/04 03:19:12;;;;;;;14.03;7.87;;;8.90;93.30;;;;;;5010819;28;20458;-67
2021/03/04 03:21:38;;;;;;;11.90;6.73;;;8.80;93.70;;;;;;5012096;28;20458;-70
2021/03/04 03:24:04;;;;;;;12.97;7.53;;;8.80;93.80;;;;;;5011971;28;20200;-68
2021/03/04 03:26:31;;;;;;;17.90;7.50;;;8.80;94.10;;;;;;5011728;28;20316;-69
2021/03/04 03:28:57;;;;;;;17.50;7.67;;;8.80;93.80;;;;;;5011717;28;20447;-67
2021/03/04 03:31:26;;;;;;;13.03;7.73;;;8.70;94.00;;;;;;5012124;28;20456;-68
2021/03/04 03:33:53;;;;;;;16.80;8.40;;;8.80;94.80;;;;;;5010967;28;20441;-67
2021/03/04 03:36:26;;;;;;;10.40;7.23;;;8.80;94.90;;;;;;5011603;28;20424;-68
2021/03/04 03:39:13;;;;;;;15.53;7.40;;;8.90;94.30;;;;;;4800822;27;7687785;-69
2021/03/04 03:41:41;;;;;;;11.67;7.10;;;8.90;94.10;;;;;;5047506;28;20802;-68
2021/03/04 03:44:12;;;;;;;9.03;6.50;;;8.80;94.80;;;;;;5047976;28;20409;-68
2021/03/04 03:46:38;;;;;;;13.37;7.90;;;8.90;94.80;;;;;;5047766;28;20410;-69
2021/03/04 03:49:05;;;;;;;14.97;7.10;;;8.70;94.90;;;;;;5048090;28;20430;-68
2021/03/04 03:51:33;;;;;;;11.43;7.17;;;8.60;95.20;;;;;;5047795;28;20424;-67
2021/03/04 03:54:01;;;;;;;13.60;7.57;;;8.60;95.60;;;;;;5047691;28;20410;-70
2021/03/04 03:56:29;;;;;;;14.70;7.30;;;8.50;95.70;;;;;;5047662;28;20464;-69
2021/03/04 03:58:58;;;;;;;15.43;7.30;;;8.60;96.10;;;;;;5047564;28;20901;-69
2021/03/04 04:01:30;;;;;;;15.93;7.47;;;8.50;96.50;;;;;;5047693;28;20448;-70
2021/03/04 04:03:59;;;;;;;17.07;8.17;;;8.50;96.10;;;;;;5047429;28;20452;-69
2021/03/04 04:06:27;;;;;;;13.17;7.30;;;8.50;96.10;;;;;;5047604;28;20734;-70
2021/03/04 04:08:54;;;;;;;11.70;7.10;;;8.50;96.50;;;;;;5047222;28;20792;-67
2021/03/04 04:11:24;;;;;;;13.33;7.83;;;8.60;97.60;;;;;;5047363;28;20417;-69
2021/03/04 04:13:50;;;;;;;13.70;8.27;;;8.70;97.50;;;;;;5065301;28;20514;-68
2021/03/04 04:16:17;;;;;;;14.67;7.47;;;8.60;96.80;;;;;;5067348;28;20429;-70
2021/03/04 04:18:44;;;;;;;20.33;7.73;;;8.60;96.50;;;;;;5067181;28;20464;-69
2021/03/04 04:21:10;;;;;;;18.83;8.00;;;8.60;97.30;;;;;;5067143;28;20420;-68
2021/03/04 04:23:36;;;;;;;13.67;7.70;;;8.60;96.90;;;;;;5067219;28;20417;-68
2021/03/04 04:26:02;;;;;;;13.63;8.03;;;8.60;97.40;;;;;;5067018;28;20628;-70
2021/03/04 04:28:28;;;;;;;19.43;8.90;;;8.70;97.50;;;;;;5067020;28;20421;-70
2021/03/04 04:30:53;;;;;;;15.00;8.07;;;8.70;97.80;;;;;;5066698;28;20699;-68
2021/03/04 04:33:19;;;;;;;15.13;8.00;;;8.60;96.80;;;;;;5049316;28;20513;-68
2021/03/04 04:35:45;;;;;;;17.60;9.20;;;8.60;97.10;;;;;;5047015;28;20175;-69
2021/03/04 04:38:11;;;;;;;13.50;7.97;;;8.60;97.40;;;;;;5059836;28;20226;-70
2021/03/04 04:40:37;;;;;;;21.90;9.23;;;8.70;98.40;;;;;;5066699;28;20194;-69
2021/03/04 04:43:02;;;;;;;14.87;7.73;;;8.70;98.00;;;;;;5066533;28;20405;-69
2021/03/04 04:45:28;;;;;;;12.60;7.73;;;8.60;96.50;;;;;;5066777;28;20170;-69
2021/03/04 04:47:54;;;;;;;15.13;8.00;;;8.70;94.80;;;;;;5066924;28;20647;-69
2021/03/04 04:50:19;;;;;;;19.13;8.93;;;8.70;95.60;;;;;;5053381;28;20240;-68
2021/03/04 04:52:45;;;;;;;15.40;8.57;;;8.70;96.50;;;;;;5053284;28;20183;-68
2021/03/04 04:55:11;;;;;;;13.27;8.47;;;8.60;96.50;;;;;;5053103;28;20559;-69
2021/03/04 04:57:36;;;;;;;14.57;8.93;;;8.60;96.00;;;;;;5053450;28;20909;-68
2021/03/04 05:00:05;;;;;;;17.97;8.67;;;8.50;96.70;;;;;;5053170;28;20182;-71
2021/03/04 05:02:30;;;;;;;15.87;8.10;;;8.40;96.80;;;;;;5052882;28;20211;-68
2021/03/04 05:04:56;;;;;;;12.20;7.80;;;8.40;97.00;;;;;;5053144;28;20565;-69
2021/03/04 05:07:22;;;;;;;15.97;8.20;;;8.40;97.20;;;;;;5052861;28;20177;-70
2021/03/04 05:09:47;;;;;;;11.57;7.57;;;8.50;97.00;;;;;;5052883;28;20248;-68
2021/03/04 05:12:13;;;;;;;15.03;8.17;;;8.50;97.80;;;;;;5053024;28;20278;-69
2021/03/04 05:14:38;;;;;;;14.00;7.93;;;8.50;97.20;;;;;;5052822;28;20181;-70
2021/03/04 05:17:04;;;;;;;13.30;7.10;;;8.40;97.10;;;;;;5052935;28;20308;-69
2021/03/04 05:19:30;;;;;;;15.77;8.30;;;8.50;99.20;;;;;;5052514;28;20214;-69
2021/03/04 05:21:56;;;;;;;12.43;8.00;;;8.50;98.30;;;;;;5052795;28;20270;-69
2021/03/04 05:24:21;;;;;;;19.07;8.53;;;8.60;99.40;;;;;;5052611;28;20172;-69
2021/03/04 05:26:47;;;;;;;16.70;8.90;;;8.60;99.20;;;;;;5052464;28;20175;-68
2021/03/04 05:29:12;;;;;;;13.97;8.27;;;8.50;99.80;;;;;;5052785;28;20171;-69
2021/03/04 05:31:38;;;;;;;15.97;7.63;;;8.50;99.30;;;;;;5052602;28;20661;-70
2021/03/04 05:34:04;;;;;;;14.40;8.30;;;8.40;99.50;;;;;;5051259;28;20324;-68
2021/03/04 05:36:30;;;;;;;14.63;7.87;;;8.40;99.20;;;;;;5052640;28;20172;-69
2021/03/04 05:38:55;;;;;;;14.00;8.70;;;8.40;99.90;;;;;;5052329;28;20894;-69
2021/03/04 05:41:22;;;;;;;15.53;8.07;;;8.50;99.60;;;;;;5052471;28;20163;-69
2021/03/04 05:43:49;;;;;;;17.63;8.97;;;8.40;99.90;;;;;;5052093;28;20174;-68
2021/03/04 05:46:18;;;;;;;14.10;9.10;;;8.50;99.90;;;;;;5052402;28;20410;-67
2021/03/04 05:48:46;;;;;;;16.50;9.50;;;8.50;99.90;;;;;;5052591;28;20425;-70
2021/03/04 05:51:18;;;;;;;20.07;9.90;;;8.40;99.90;;;;;;5052266;28;20975;-67
2021/03/04 05:53:47;;;;;;;13.97;9.93;;;8.50;99.90;;;;;;5052070;28;20433;-68
2021/03/04 05:56:17;;;;;;;14.70;8.87;;;8.40;99.90;;;;;;5052277;28;21937;-68
2021/03/04 05:58:44;;;;;;;18.67;9.10;;;8.20;99.90;;;;;;5052026;28;20449;-67
2021/03/04 06:01:11;;;;;;;15.13;9.30;;;8.20;99.90;;;;;;5050840;28;20409;-68
2021/03/04 06:03:39;;;;;;;17.60;9.30;;;8.20;99.90;;;;;;5052142;28;20443;-69
2021/03/04 06:06:04;;;;;;;14.93;9.00;;;8.20;99.90;;;;;;5051671;28;20413;-68
2021/03/04 06:08:30;;;;;;;14.67;8.67;;;8.40;98.60;;;;;;5051862;28;20425;-68
2021/03/04 06:10:56;;;;;;;15.13;9.20;;;8.60;97.60;;;;;;5051783;28;20236;-69
2021/03/04 06:13:21;;;;;;;16.60;8.93;;;8.60;97.90;;;;;;5051500;28;20594;-68
2021/03/04 06:15:47;;;;;;;15.90;8.83;;;8.70;97.50;;;;;;5051767;28;20179;-66
2021/03/04 06:18:13;;;;;;;19.27;8.97;;;8.60;97.90;;;;;;5051658;28;20197;-67
2021/03/04 06:20:39;;;;;;;16.13;8.27;;;8.60;98.10;;;;;;5051611;28;20673;-67
2021/03/04 06:23:05;;;;;;;16.90;8.67;;;8.50;99.00;;;;;;5051568;28;20167;-68
2021/03/04 06:25:31;;;;;;;16.50;8.83;;;8.60;99.40;;;;;;5051374;28;20464;-67
2021/03/04 06:27:57;;;;;;;16.90;8.50;;;8.70;98.20;;;;;;5051468;28;20183;-68
2021/03/04 06:30:23;;;;;;;14.27;8.87;;;8.70;98.00;;;;;;5051314;28;20175;-67
2021/03/04 06:33:03;;;;;;;20.57;9.03;;;8.60;97.90;;;;;;5051255;28;20475;-68
2021/03/04 06:35:34;;;;;;;19.20;9.00;;;8.70;98.50;;;;;;5051073;28;20429;-68
2021/03/04 06:38:00;;;;;;;21.13;9.57;;;8.70;98.40;;;;;;5033868;28;21548;-69
2021/03/04 06:40:30;;;;;;;22.07;9.10;;;8.90;94.70;;;;;;5051169;28;20414;-65
2021/03/04 06:42:56;;;;;;;16.60;9.30;;;8.90;96.20;;;;;;5051026;28;20471;-67
2021/03/04 06:45:23;;;;;;;17.67;9.30;;;8.90;96.90;;;;;;5051045;28;20422;-68
2021/03/04 06:47:48;;;;;;;15.53;9.37;;;9.00;96.20;;;;;;5050865;28;20174;-68
2021/03/04 06:50:25;;;;;;;18.07;9.50;;;9.00;96.90;;;;;;5051315;28;20424;-70
2021/03/04 06:52:51;;;;;;;16.70;9.40;;;9.10;96.60;;;;;;5050856;28;20190;-69
2021/03/04 06:55:17;;;;;;;16.50;9.70;;;9.10;96.60;;;;;;5051085;28;20433;-69
2021/03/04 06:58:03;;;;;;;18.77;8.87;;;9.20;95.50;;;;;;5050743;28;20509;-68
2021/03/04 07:00:29;;;;;;;15.23;8.83;;;9.40;92.70;;;;;;5051069;28;20509;-67
2021/03/04 07:02:59;;;;;;;15.13;8.03;;;9.50;92.60;;;;;;5050824;28;20421;-69
2021/03/04 07:05:25;;;;;;;18.50;9.47;;;9.50;94.30;;;;;;5050971;28;20453;-69
2021/03/04 07:07:53;;;;;;;18.13;8.87;;;9.60;93.80;;;;;;5050681;28;20410;-67
2021/03/04 07:10:24;;;;;;;20.50;9.00;;;9.60;92.40;;;;;;5050716;28;20413;-68
2021/03/04 07:12:50;;;;;;;14.63;8.90;;;9.70;92.70;;;;;;5050865;28;20421;-67
2021/03/04 07:15:18;;;;;;;21.33;9.10;;;9.70;92.90;;;;;;5050767;28;20520;-68
2021/03/04 07:17:47;;;;;;;15.77;9.40;;;9.60;93.30;;;;;;5050701;28;20667;-69
2021/03/04 07:20:15;;;;;;;19.83;10.00;;;9.60;93.60;;;;;;5050668;28;20524;-68
2021/03/04 07:22:45;;;;;;;18.33;9.00;;;9.50;94.60;;;;;;5050376;28;20469;-68
2021/03/04 07:25:13;;;;;;;21.60;9.73;;;9.60;93.30;;;;;;5050554;28;20457;-68
2021/03/04 07:27:40;;;;;;;16.37;9.20;;;9.60;93.80;;;;;;5050295;28;20433;-68
2021/03/04 07:30:11;;;;;;;15.40;9.07;;;9.70;92.80;;;;;;5050702;28;20202;-69
2021/03/04 07:32:37;;;;;;;14.13;9.17;;;9.80;92.00;;;;;;5050256;28;20414;-67
2021/03/04 07:35:21;;;;;;;15.00;8.87;;;9.90;92.60;;;;;;5032427;28;20232;-69
2021/03/04 07:37:54;;;;;;;19.90;8.90;;;9.90;91.90;;;;;;5050551;28;20266;-70
2021/03/04 07:40:20;;;;;;;15.37;9.13;;;10.00;91.70;;;;;;5050186;28;20182;-68
2021/03/04 07:42:46;;;;;;;14.50;8.80;;;10.10;91.10;;;;;;5050368;28;20410;-69
2021/03/04 07:45:13;;;;;;;16.53;9.53;;;10.00;91.30;;;;;;5050211;28;20189;-68
2021/03/04 07:47:39;;;;;;;16.30;9.53;;;10.00;92.00;;;;;;5050271;28;20179;-70
2021/03/04 07:50:24;;;;;;;18.47;9.63;;;10.10;91.80;;;;;;5050045;28;20421;-67
2021/03/04 07:53:00;;;;;;;19.90;9.87;;;10.20;91.90;;;;;;5050262;28;20668;-69
2021/03/04 07:55:37;;;;;;;15.67;9.60;;;10.20;92.10;;;;;;5050293;28;20863;-67
2021/03/04 07:58:13;;;;;;;18.90;9.33;;;10.10;92.90;;;;;;5050308;28;20281;-67
2021/03/04 08:00:39;;;;;;;22.30;10.53;;;10.00;93.80;;;;;;5049324;28;20415;-70
2021/03/04 08:03:04;;;;;;;16.03;10.23;;;10.00;94.00;;;;;;5050087;28;20405;-70
2021/03/04 08:05:35;;;;;;;18.40;10.57;;;10.00;94.40;;;;;;5050012;28;20182;-68
2021/03/04 08:08:17;;;;;;;20.97;10.00;;;10.20;94.40;;;;;;5050085;28;20660;-70
2021/03/04 08:10:53;;;;;;;17.57;8.70;;;10.10;95.00;;;;;;5050403;28;20413;-70
2021/03/04 08:13:30;;;;;;;18.37;8.53;;;10.20;92.80;;;;;;5050097;28;20170;-67
2021/03/04 08:15:56;;;;;;;12.67;8.07;;;10.40;90.00;;;;;;5050126;28;20749;-67
2021/03/04 08:18:23;;;;;;;21.00;8.23;;;10.60;89.20;;;;;;5049800;28;20540;-69
2021/03/04 08:20:51;;;;;;;17.83;8.67;;;10.70;86.40;;;;;;5050141;28;20185;-69
2021/03/04 08:23:18;;;;;;;15.43;8.97;;;10.70;86.60;;;;;;5050017;28;20230;-70
2021/03/04 08:25:45;;;;;;;14.90;7.90;;;10.90;88.20;;;;;;5053491;28;20185;-68
2021/03/04 08:28:29;;;;;;;17.67;8.17;;;10.90;86.00;;;;;;5053805;28;20170;-71
2021/03/04 08:30:55;;;;;;;20.33;9.27;;;11.00;85.40;;;;;;5053834;28;20274;-69
2021/03/04 08:33:25;;;;;;;12.87;8.00;;;11.10;86.10;;;;;;5053961;28;20190;-68
2021/03/04 08:36:00;;;;;;;21.63;8.47;;;11.00;85.50;;;;;;5052734;28;20186;-66
2021/03/04 08:38:26;;;;;;;17.40;9.27;;;11.10;84.10;;;;;;5053782;28;20222;-67
2021/03/04 08:40:58;;;;;;;18.07;7.97;;;11.10;84.70;;;;;;5053309;28;20637;-68
2021/03/04 08:43:29;;;;;;;17.17;7.77;;;11.10;83.40;;;;;;5053774;28;20171;-67
2021/03/04 08:46:00;;;;;;;26.37;8.87;;;11.30;84.00;;;;;;5053412;28;20167;-67
2021/03/04 08:48:25;;;;;;;16.43;8.77;;;11.30;83.20;;;;;;5053486;28;20199;-67
2021/03/04 08:50:53;;;;;;;17.57;8.63;;;11.40;81.90;;;;;;5053339;28;20226;-68
2021/03/04 08:53:27;;;;;;;13.23;7.73;;;11.40;82.90;;;;;;5053419;28;20543;-67
2021/03/04 08:55:55;;;;;;;15.70;8.77;;;11.50;81.60;;;;;;5053363;28;20175;-67
2021/03/04 08:58:23;;;;;;;12.77;6.93;;;11.60;82.00;;;;;;5053464;28;20195;-67
2021/03/04 09:01:00;;;;;;;21.83;8.63;;;11.70;79.10;;;;;;5053375;28;20183;-67
2021/03/04 09:03:33;;;;;;;16.27;9.13;;;11.80;80.00;;;;;;5053201;28;20175;-67
2021/03/04 09:06:15;;;;;;;15.60;8.63;;;12.00;79.90;;;;;;5052897;28;20245;-70
2021/03/04 09:08:45;;;;;;;16.13;8.07;;;12.10;79.50;;;;;;5053096;28;20270;-70
2021/03/04 09:11:34;;;;;;;12.37;7.70;;;12.30;79.50;;;;;;5053033;28;20637;-66
2021/03/04 09:14:11;;;;;;;18.43;8.50;;;12.50;77.20;;;;;;5052860;28;20186;-68
2021/03/04 09:16:39;;;;;;;15.33;8.23;;;12.60;76.10;;;;;;5053034;28;20183;-67
2021/03/04 09:19:05;;;;;;;15.33;8.37;;;12.60;75.50;;;;;;5052644;28;20198;-69
2021/03/04 09:21:31;;;;;;;25.30;8.60;;;12.60;76.60;;;;;;5052846;28;20274;-68
2021/03/04 09:23:58;;;;;;;15.80;7.47;;;12.70;75.20;;;;;;5052510;28;20502;-68
2021/03/04 09:26:32;;;;;;;17.60;8.00;;;12.90;74.80;;;;;;5052582;28;20210;-69
2021/03/04 09:29:00;;;;;;;13.97;7.43;;;12.80;76.50;;;;;;5052482;28;20187;-68
2021/03/04 09:31:25;;;;;;;17.53;7.23;;;12.90;75.80;;;;;;5052449;28;20194;-69
2021/03/04 09:34:03;;;;;;;14.10;7.77;;;13.10;77.20;;;;;;5052631;28;20498;-69
2021/03/04 09:36:29;;;;;;;18.53;7.87;;;13.20;75.00;;;;;;5051261;28;20189;-68
2021/03/04 09:38:56;;;;;;;18.77;8.90;;;13.30;75.90;;;;;;5051833;28;20596;-69
2021/03/04 09:41:24;;;;;;;16.13;8.97;;;13.20;75.20;;;;;;5052389;28;20250;-69
2021/03/04 09:44:00;;;;;;;18.13;9.73;;;13.10;77.20;;;;;;5052402;28;20262;-69
2021/03/04 09:46:40;;;;;;;15.60;9.47;;;13.10;77.80;;;;;;5034352;28;20178;-69
2021/03/04 09:49:18;;;;;;;20.47;9.20;;;12.90;78.80;;;;;;5051120;28;20185;-68
2021/03/04 09:51:48;;;;;;;21.03;9.97;;;12.90;81.60;;;;;;5051995;28;20179;-67
2021/03/04 09:54:25;;;;;;;17.03;9.83;;;12.90;82.60;;;;;;5052049;28;20641;-68
2021/03/04 09:57:02;;;;;;;23.17;11.43;;;13.00;82.40;;;;;;5052164;28;20186;-68
2021/03/04 09:59:27;;;;;;;19.07;10.57;;;12.90;85.50;;;;;;5051578;28;20588;-68
2021/03/04 10:01:53;;;;;;;18.70;11.10;;;13.00;83.30;;;;;;5052297;28;20203;-69
2021/03/04 10:04:26;;;;;;;15.23;8.00;;;13.10;83.10;;;;;;5052140;28;20233;-68
2021/03/04 10:06:51;;;;;;;16.40;8.83;;;13.20;79.20;;;;;;5051780;28;20561;-69
2021/03/04 10:09:25;;;;;;;16.30;7.57;;;13.30;79.40;;;;;;5052011;28;20175;-70
2021/03/04 10:11:51;;;;;;;15.63;6.57;;;13.20;74.00;;;;;;5051681;28;20183;-67
2021/03/04 10:14:16;;;;;;;19.67;6.87;;;13.10;72.60;;;;;;5051709;28;20678;-70
2021/03/04 10:16:42;;;;;;;18.63;7.13;;;13.20;75.60;;;;;;5051746;28;20171;-69
2021/03/04 10:19:09;;;;;;;14.83;6.73;;;13.30;74.00;;;;;;5051672;28;20229;-70
2021/03/04 10:21:35;;;;;;;10.83;5.97;;;13.40;74.90;;;;;;5051701;28;20174;-68
2021/03/04 10:24:01;;;;;;;18.00;7.27;;;13.50;74.60;;;;;;5051458;28;20262;-67
2021/03/04 10:26:27;;;;;;;20.30;11.07;;;13.60;75.10;;;;;;5051675;28;20182;-67
2021/03/04 10:28:53;;;;;;;18.63;9.27;;;13.40;79.80;;;;;;5051287;28;20187;-71
2021/03/04 10:31:19;;;;;;;17.17;9.80;;;13.40;79.40;;;;;;5051357;28;20175;-69
2021/03/04 10:33:45;;;;;;;23.23;10.73;;;13.30;80.30;;;;;;5051521;28;20175;-68
2021/03/04 10:36:11;;;;;;;19.30;10.27;;;13.40;85.60;;;;;;5033321;28;20464;-69
2021/03/04 10:38:36;;;;;;;20.83;9.17;;;13.50;85.00;;;;;;5050554;28;20221;-69
2021/03/04 10:41:03;;;;;;;17.77;8.33;;;13.70;81.80;;;;;;5016685;28;20539;-70
2021/03/04 10:43:28;;;;;;;20.77;8.13;;;13.80;80.20;;;;;;5041001;28;20263;-69
2021/03/04 10:45:54;;;;;;;16.00;7.90;;;13.80;76.40;;;;;;5031568;28;20262;-67
2021/03/04 10:48:21;;;;;;;18.30;8.60;;;13.70;77.30;;;;;;5030553;28;20183;-67
2021/03/04 10:50:47;;;;;;;16.67;10.67;;;13.70;79.50;;;;;;5031344;28;20229;-68
2021/03/04 10:53:12;;;;;;;20.97;10.67;;;13.70;81.40;;;;;;5046629;28;20175;-68
2021/03/04 10:55:38;;;;;;;18.93;10.50;;;13.70;81.90;;;;;;5036355;28;20225;-69
2021/03/04 10:58:04;;;;;;;18.70;9.77;;;13.80;80.10;;;;;;5031132;28;20230;-68
2021/03/04 11:00:29;;;;;;;19.97;10.13;;;13.90;78.90;;;;;;5031207;28;20214;-69
2021/03/04 11:02:55;;;;;;;21.17;10.23;;;13.90;79.20;;;;;;5031042;28;20194;-69
2021/03/04 11:05:21;;;;;;;14.53;8.90;;;13.90;78.90;;;;;;5048158;28;20191;-67
2021/03/04 11:07:46;;;;;;;16.63;8.90;;;13.90;79.50;;;;;;5051036;28;20217;-68
2021/03/04 11:10:12;;;;;;;15.80;9.57;;;13.90;76.20;;;;;;5050651;28;20175;-68
2021/03/04 11:12:38;;;;;;;18.00;9.23;;;14.00;78.60;;;;;;5051032;28;20189;-69
2021/03/04 11:15:05;;;;;;;14.23;8.67;;;14.20;80.70;;;;;;5050673;28;20187;-69
2021/03/04 11:17:31;;;;;;;17.97;8.73;;;14.50;75.30;;;;;;5050806;28;20532;-69
2021/03/04 11:19:57;;;;;;;23.13;7.30;;;14.60;75.70;;;;;;5050659;28;20175;-69
2021/03/04 11:22:22;;;;;;;26.50;7.73;;;14.90;67.80;;;;;;5031947;28;20262;-68
2021/03/04 11:24:48;;;;;;;12.00;5.33;;;15.10;71.30;;;;;;5030634;28;20182;-68
2021/03/04 11:27:18;;;;;;;15.03;6.10;;;15.00;64.20;;;;;;5030513;28;20598;-67
2021/03/04 11:29:45;;;;;;;15.60;5.67;;;14.90;64.50;;;;;;5030395;28;20176;-67
2021/03/04 11:32:11;;;;;;;17.03;6.33;;;14.70;65.50;;;;;;5030736;28;20213;-67
2021/03/04 11:34:37;;;;;;;13.73;6.23;;;14.60;67.20;;;;;;5030498;28;20253;-68
2021/03/04 11:37:03;;;;;;;22.83;6.47;;;14.70;66.50;;;;;;5030598;28;20175;-69
2021/03/04 11:39:28;;;;;;;12.53;6.27;;;14.80;66.20;;;;;;5047846;28;20297;-69
2021/03/04 11:41:54;;;;;;;22.30;6.43;;;15.00;67.40;;;;;;5050295;28;20207;-68
2021/03/04 11:44:19;;;;;;;16.23;6.20;;;15.30;65.90;;;;;;5050553;28;20681;-69
2021/03/04 11:46:45;;;;;;;14.33;5.50;;;15.60;67.50;;;;;;5050466;28;20175;-68
2021/03/04 11:49:11;;;;;;;12.37;5.10;;;15.80;61.10;;;;;;5050426;28;20195;-67
2021/03/04 11:51:36;;;;;;;13.53;5.70;;;15.90;60.00;;;;;;5049360;28;20270;-70
2021/03/04 11:54:02;;;;;;;13.47;5.60;;;15.80;60.70;;;;;;5050518;28;20175;-69
2021/03/04 11:56:29;;;;;;;16.17;5.87;;;16.00;61.20;;;;;;5050610;28;20205;-69
2021/03/04 11:58:55;;;;;;;12.90;5.60;;;16.00;58.70;;;;;;5050957;28;20206;-70
2021/03/04 12:01:20;;;;;;;11.93;6.03;;;15.90;57.80;;;;;;5054455;28;20569;-69
2021/03/04 12:03:46;;;;;;;11.43;5.57;;;15.90;57.60;;;;;;5054260;28;20641;-69
2021/03/04 12:06:12;;;;;;;13.33;5.40;;;15.90;58.30;;;;;;5054347;28;20182;-69
2021/03/04 12:08:38;;;;;;;16.93;5.90;;;16.00;58.90;;;;;;5053969;28;20191;-67
2021/03/04 12:11:03;;;;;;;14.40;6.10;;;16.00;59.50;;;;;;5054243;28;20192;-69
2021/03/04 12:13:34;;;;;;;16.67;6.87;;;16.10;62.90;;;;;;5054107;28;20213;-70
2021/03/04 12:16:05;;;;;;;15.83;6.37;;;16.10;59.60;;;;;;5054289;28;20167;-69
2021/03/04 12:18:34;;;;;;;13.17;6.33;;;15.90;59.00;;;;;;5054042;28;20196;-69
2021/03/04 12:21:00;;;;;;;12.13;6.33;;;15.50;59.30;;;;;;5054104;28;20201;-70
2021/03/04 12:23:26;;;;;;;14.33;6.57;;;15.60;59.80;;;;;;5053708;28;20201;-69
2021/03/04 12:25:52;;;;;;;21.20;5.80;;;15.60;59.70;;;;;;5054033;28;20167;-69
2021/03/04 12:28:18;;;;;;;11.80;6.00;;;15.60;59.10;;;;;;5053689;28;20179;-68
2021/03/04 12:30:45;;;;;;;16.93;7.53;;;15.60;59.90;;;;;;5053830;28;20610;-70
2021/03/04 12:33:12;;;;;;;14.27;6.70;;;15.70;60.40;;;;;;5053652;28;20181;-69
2021/03/04 12:35:37;;;;;;;17.97;7.27;;;15.80;59.40;;;;;;5053330;28;20171;-69
2021/03/04 12:38:03;;;;;;;23.37;8.10;;;16.00;59.60;;;;;;5054043;28;20241;-69
2021/03/04 12:40:30;;;;;;;17.33;8.87;;;16.20;60.50;;;;;;5053430;28;20231;-68
2021/03/04 12:42:56;;;;;;;18.70;9.33;;;16.10;60.80;;;;;;5053591;28;20210;-69